Time;durP1;ratioP1;P1;durP2;ratioP2;P2;SDS_P1;SDS_P2;PMS_P1;PMS_P2;Temp;Humidity;BMP_temperature;BMP_pressure;BME280_temperature;BME280_humidity;BME280_pressure;Samples;Min_cycle;Max_cycle;Signal;HPM_P1;HPM_P2
2022/06/17 00:00:26;;;;;;;4.73;3.70;;;;;;;;;;4987753;28;20226;-72
2022/06/17 00:02:54;;;;;;;4.40;3.97;;;;;;;;;;4955538;28;20233;-71
2022/06/17 00:05:22;;;;;;;4.17;3.87;;;;;;;;;;4988902;28;20330;-72
2022/06/17 00:07:47;;;;;;;4.50;3.90;;;;;;;;;;4970730;28;20221;-72
2022/06/17 00:10:21;;;;;;;4.10;3.80;;;;;;;;;;4972622;28;20737;-72
2022/06/17 00:12:49;;;;;;;4.83;4.00;;;;;;;;;;4947259;28;20340;-71
2022/06/17 00:15:14;;;;;;;5.27;3.83;;;;;;;;;;4956403;28;20260;-71
2022/06/17 00:17:55;;;;;;;6.07;3.90;;;;;;;;;;4956630;28;20221;-72
2022/06/17 00:20:24;;;;;;;4.50;4.10;;;;;;;;;;4939845;28;20301;-72
2022/06/17 00:22:52;;;;;;;4.40;3.70;;;;;;;;;;4972020;28;20244;-72
2022/06/17 00:25:25;;;;;;;5.37;3.97;;;;;;;;;;4958625;28;20221;-72
2022/06/17 00:27:53;;;;;;;4.10;3.80;;;;;;;;;;4971307;28;20320;-72
2022/06/17 00:30:23;;;;;;;4.93;4.03;;;;;;;;;;4956640;28;20217;-72
2022/06/17 00:32:52;;;;;;;4.33;3.90;;;;;;;;;;4940322;28;20726;-72
2022/06/17 00:35:17;;;;;;;4.40;4.00;;;;;;;;;;4983199;28;20320;-72
2022/06/17 00:37:45;;;;;;;4.10;3.70;;;;;;;;;;4955826;28;20290;-72
2022/06/17 00:40:14;;;;;;;4.67;3.93;;;;;;;;;;4968037;28;20453;-72
2022/06/17 00:42:40;;;;;;;4.97;4.47;;;;;;;;;;4971153;28;20233;-72
2022/06/17 00:45:31;;;;;;;4.40;4.00;;;;;;;;;;4956882;28;20225;-71
2022/06/17 00:48:07;;;;;;;4.87;4.03;;;;;;;;;;4954482;28;20318;-72
2022/06/17 00:50:55;;;;;;;4.60;4.20;;;;;;;;;;4939525;28;20224;-72
2022/06/17 00:53:30;;;;;;;4.90;4.43;;;;;;;;;;4950342;28;20225;-72
2022/06/17 00:56:13;;;;;;;5.73;4.03;;;;;;;;;;4986955;28;20221;-72
2022/06/17 00:59:01;;;;;;;5.20;4.70;;;;;;;;;;4986446;28;20245;-71
2022/06/17 01:01:50;;;;;;;4.87;4.47;;;;;;;;;;4981774;28;20738;-71
2022/06/17 01:04:42;;;;;;;4.77;4.37;;;;;;;;;;4956764;28;20215;-71
2022/06/17 01:07:17;;;;;;;5.10;4.70;;;;;;;;;;4968564;28;20226;-72
2022/06/17 01:10:01;;;;;;;4.83;4.13;;;;;;;;;;4955209;28;20236;-71
2022/06/17 01:12:43;;;;;;;4.87;4.47;;;;;;;;;;4939812;28;20224;-71
2022/06/17 01:15:15;;;;;;;5.23;4.73;;;;;;;;;;4955360;28;20225;-71
2022/06/17 01:17:45;;;;;;;4.80;4.40;;;;;;;;;;4939888;28;20715;-71
2022/06/17 01:20:12;;;;;;;5.00;4.43;;;;;;;;;;4955006;28;20293;-71
2022/06/17 01:22:49;;;;;;;6.20;4.70;;;;;;;;;;4970224;28;20226;-70
2022/06/17 01:25:42;;;;;;;4.80;4.40;;;;;;;;;;4915785;28;20228;-71
2022/06/17 01:28:12;;;;;;;4.80;4.40;;;;;;;;;;4985884;28;20218;-70
2022/06/17 01:30:42;;;;;;;5.07;4.67;;;;;;;;;;4945587;28;20225;-71
2022/06/17 01:33:18;;;;;;;4.93;4.50;;;;;;;;;;4966628;28;20253;-71
2022/06/17 01:36:06;;;;;;;5.70;4.90;;;;;;;;;;4949203;28;20259;-71
2022/06/17 01:38:35;;;;;;;5.50;4.57;;;;;;;;;;4967458;28;20214;-72
2022/06/17 01:41:00;;;;;;;4.53;4.20;;;;;;;;;;4955121;28;20233;-71
2022/06/17 01:43:46;;;;;;;5.20;4.80;;;;;;;;;;4949689;28;20606;-71
2022/06/17 01:46:18;;;;;;;5.27;4.73;;;;;;;;;;4964366;28;20313;-71
2022/06/17 01:48:48;;;;;;;6.40;4.80;;;;;;;;;;4955530;28;20254;-72
2022/06/17 01:51:13;;;;;;;5.87;5.10;;;;;;;;;;4950554;28;20225;-72
2022/06/17 01:53:42;;;;;;;5.50;5.00;;;;;;;;;;4952433;28;20320;-71
2022/06/17 01:56:09;;;;;;;5.43;4.93;;;;;;;;;;4965225;28;20229;-71
2022/06/17 01:58:41;;;;;;;5.20;4.80;;;;;;;;;;4948836;28;20256;-71
2022/06/17 02:01:07;;;;;;;5.60;4.97;;;;;;;;;;4952633;28;20781;-70
2022/06/17 02:03:37;;;;;;;5.60;5.10;;;;;;;;;;4952920;28;20221;-71
2022/06/17 02:06:24;;;;;;;5.53;4.97;;;;;;;;;;4937419;28;20251;-71
2022/06/17 02:08:52;;;;;;;5.30;4.80;;;;;;;;;;4964100;28;20229;-72
2022/06/17 02:11:20;;;;;;;4.70;4.30;;;;;;;;;;4954452;28;20248;-72
2022/06/17 02:13:54;;;;;;;5.57;5.07;;;;;;;;;;4982880;28;20253;-72
2022/06/17 02:16:30;;;;;;;5.37;4.93;;;;;;;;;;4941024;28;20233;-73
2022/06/17 02:19:04;;;;;;;7.23;4.93;;;;;;;;;;4967092;28;20225;-73
2022/06/17 02:21:39;;;;;;;5.83;5.27;;;;;;;;;;4960437;28;20712;-72
2022/06/17 02:24:07;;;;;;;6.37;5.70;;;;;;;;;;4955307;28;20255;-72
2022/06/17 02:26:36;;;;;;;5.70;5.20;;;;;;;;;;4970831;28;20241;-72
2022/06/17 02:29:02;;;;;;;5.63;5.00;;;;;;;;;;4954255;28;20311;-71
2022/06/17 02:31:33;;;;;;;7.10;5.47;;;;;;;;;;4930696;28;20704;-71
2022/06/17 02:34:00;;;;;;;5.60;5.10;;;;;;;;;;4963595;28;20236;-72
2022/06/17 02:36:29;;;;;;;5.83;5.33;;;;;;;;;;4967118;28;20304;-72
2022/06/17 02:38:58;;;;;;;6.00;5.40;;;;;;;;;;4959618;28;20253;-70
2022/06/17 02:41:28;;;;;;;6.23;5.60;;;;;;;;;;4998662;28;20743;-71
2022/06/17 02:44:03;;;;;;;5.93;5.50;;;;;;;;;;4960290;28;20217;-71
2022/06/17 02:46:36;;;;;;;6.10;5.50;;;;;;;;;;4944275;28;20596;-71
2022/06/17 02:49:05;;;;;;;6.43;5.83;;;;;;;;;;4955495;28;20226;-72
2022/06/17 02:51:35;;;;;;;5.17;4.77;;;;;;;;;;4939696;28;20229;-71
2022/06/17 02:54:06;;;;;;;5.20;4.73;;;;;;;;;;4951309;28;20222;-72
2022/06/17 02:56:35;;;;;;;5.77;4.80;;;;;;;;;;4966157;28;20288;-71
2022/06/17 02:59:20;;;;;;;6.00;5.50;;;;;;;;;;4939936;28;20237;-72
2022/06/17 03:01:51;;;;;;;5.40;4.90;;;;;;;;;;4968535;28;20225;-72
2022/06/17 03:04:31;;;;;;;5.63;5.13;;;;;;;;;;4971592;28;20246;-72
2022/06/17 03:07:00;;;;;;;5.93;5.27;;;;;;;;;;4952810;28;20230;-72
2022/06/17 03:09:31;;;;;;;5.23;4.80;;;;;;;;;;4940596;28;20251;-72
2022/06/17 03:12:28;;;;;;;7.03;4.80;;;;;;;;;;4940644;28;20694;-71
2022/06/17 03:15:12;;;;;;;5.07;4.67;;;;;;;;;;4957516;28;20233;-71
2022/06/17 03:17:44;;;;;;;6.57;4.97;;;;;;;;;;4971129;28;20640;-71
2022/06/17 03:20:24;;;;;;;5.80;5.07;;;;;;;;;;4982900;28;20229;-71
2022/06/17 03:22:58;;;;;;;6.03;4.97;;;;;;;;;;4965229;28;20654;-71
2022/06/17 03:25:29;;;;;;;5.30;4.80;;;;;;;;;;4982983;28;20228;-71
2022/06/17 03:27:59;;;;;;;5.43;5.03;;;;;;;;;;4953537;28;20265;-71
2022/06/17 03:30:32;;;;;;;6.00;5.07;;;;;;;;;;4952453;28;20648;-72
2022/06/17 03:33:17;;;;;;;5.53;5.03;;;;;;;;;;4965257;28;20222;-71
2022/06/17 03:35:47;;;;;;;5.80;5.30;;;;;;;;;;4951416;28;20233;-71
2022/06/17 03:38:19;;;;;;;5.87;5.37;;;;;;;;;;4952316;28;20257;-71
2022/06/17 03:40:47;;;;;;;5.40;4.90;;;;;;;;;;4968394;28;20233;-72
2022/06/17 03:43:25;;;;;;;5.63;5.13;;;;;;;;;;4954300;28;20225;-71
2022/06/17 03:45:59;;;;;;;5.53;5.00;;;;;;;;;;4954785;28;20256;-71
2022/06/17 03:48:37;;;;;;;5.50;5.00;;;;;;;;;;4964384;28;20283;-71
2022/06/17 03:51:03;;;;;;;5.87;5.00;;;;;;;;;;4984371;28;20693;-72
2022/06/17 03:53:35;;;;;;;5.20;4.70;;;;;;;;;;4951548;28;20225;-71
2022/06/17 03:56:03;;;;;;;4.73;4.43;;;;;;;;;;4951117;28;20236;-71
2022/06/17 03:58:35;;;;;;;5.70;5.07;;;;;;;;;;4950165;28;20307;-72
2022/06/17 04:01:19;;;;;;;4.93;4.43;;;;;;;;;;4951927;28;20225;-71
2022/06/17 04:03:53;;;;;;;5.57;5.07;;;;;;;;;;4952679;28;20233;-72
2022/06/17 04:06:40;;;;;;;6.23;4.83;;;;;;;;;;4955234;28;20720;-72
2022/06/17 04:09:14;;;;;;;5.30;4.90;;;;;;;;;;4953024;28;20221;-72
2022/06/17 04:11:48;;;;;;;5.70;5.20;;;;;;;;;;4970687;28;20226;-72
2022/06/17 04:14:23;;;;;;;7.00;5.50;;;;;;;;;;4953099;28;20272;-72
2022/06/17 04:17:17;;;;;;;6.00;5.40;;;;;;;;;;4950226;28;20253;-73
2022/06/17 04:19:49;;;;;;;6.07;5.57;;;;;;;;;;4997859;28;20303;-73
2022/06/17 04:22:22;;;;;;;7.87;5.40;;;;;;;;;;4965472;28;20275;-73
2022/06/17 04:25:36;;;;;;;6.03;5.50;;;;;;;;;;4957571;28;20595;-72
2022/06/17 04:28:08;;;;;;;5.97;5.27;;;;;;;;;;4966289;28;20646;-72
2022/06/17 04:30:42;;;;;;;5.93;5.33;;;;;;;;;;4935847;28;20225;-72
2022/06/17 04:33:30;;;;;;;6.73;6.00;;;;;;;;;;4953123;28;20652;-73
2022/06/17 04:36:01;;;;;;;6.30;5.60;;;;;;;;;;4935195;28;20225;-72
2022/06/17 04:38:29;;;;;;;6.60;5.63;;;;;;;;;;4955086;28;20217;-72
2022/06/17 04:41:07;;;;;;;6.53;5.90;;;;;;;;;;4952218;28;20218;-72
2022/06/17 04:43:47;;;;;;;6.53;5.93;;;;;;;;;;4940979;28;20229;-73
2022/06/17 04:46:17;;;;;;;6.60;5.90;;;;;;;;;;4950100;28;20720;-72
2022/06/17 04:48:49;;;;;;;7.30;6.07;;;;;;;;;;4954546;28;20770;-72
2022/06/17 04:51:14;;;;;;;6.40;5.83;;;;;;;;;;4945018;28;20221;-72
2022/06/17 04:53:44;;;;;;;6.77;6.17;;;;;;;;;;4934122;28;20221;-72
2022/06/17 04:56:31;;;;;;;6.73;6.10;;;;;;;;;;4952840;28;20261;-73
2022/06/17 04:59:35;;;;;;;6.57;5.97;;;;;;;;;;4963366;28;20288;-72
2022/06/17 05:02:16;;;;;;;8.30;6.63;;;;;;;;;;4980913;28;20292;-72
2022/06/17 05:04:52;;;;;;;6.90;6.30;;;;;;;;;;4957076;28;20229;-73
2022/06/17 05:07:17;;;;;;;7.70;6.07;;;;;;;;;;4964772;28;20234;-73
2022/06/17 05:09:46;;;;;;;8.23;6.30;;;;;;;;;;4971262;28;20272;-73
2022/06/17 05:12:16;;;;;;;7.63;6.53;;;;;;;;;;4946249;28;20229;-72
2022/06/17 05:14:46;;;;;;;6.70;6.10;;;;;;;;;;4964480;28;20271;-72
2022/06/17 05:17:19;;;;;;;7.53;6.53;;;;;;;;;;4964320;28;20308;-72
2022/06/17 05:19:48;;;;;;;7.37;6.23;;;;;;;;;;4950344;28;20313;-72
2022/06/17 05:22:29;;;;;;;9.40;6.27;;;;;;;;;;4948173;28;20371;-72
2022/06/17 05:25:04;;;;;;;6.93;6.33;;;;;;;;;;4962237;28;20228;-72
2022/06/17 05:27:30;;;;;;;8.47;5.80;;;;;;;;;;4961216;28;20253;-72
2022/06/17 05:29:56;;;;;;;6.57;5.97;;;;;;;;;;4975330;28;20684;-72
2022/06/17 05:32:24;;;;;;;6.95;6.32;;;;;;;;;;4947314;28;20240;-72
2022/06/17 05:34:53;;;;;;;6.60;5.90;;;;;;;;;;4947974;28;20225;-73
2022/06/17 05:37:18;;;;;;;8.18;5.65;;;;;;;;;;4965007;28;20236;-73
2022/06/17 05:39:47;;;;;;;6.43;5.93;;;;;;;;;;4965555;28;20256;-73
2022/06/17 05:42:17;;;;;;;8.65;6.13;;;;;;;;;;4966952;28;20265;-72
2022/06/17 05:44:43;;;;;;;6.07;5.50;;;;;;;;;;4954589;28;20340;-71
2022/06/17 05:47:28;;;;;;;6.28;5.78;;;;;;;;;;4941408;28;20253;-70
2022/06/17 05:50:10;;;;;;;6.07;5.40;;;;;;;;;;4966045;28;20272;-72
2022/06/17 05:52:52;;;;;;;8.45;5.78;;;;;;;;;;4967484;28;20884;-72
2022/06/17 05:55:40;;;;;;;5.90;5.40;;;;;;;;;;4971337;28;20859;-72
2022/06/17 05:58:05;;;;;;;5.45;4.95;;;;;;;;;;4934143;28;20773;-73
2022/06/17 06:00:37;;;;;;;8.75;5.68;;;;;;;;;;4950506;28;20798;-72
2022/06/17 06:03:04;;;;;;;6.47;5.13;;;;;;;;;;4961985;28;20249;-72
2022/06/17 06:05:35;;;;;;;6.78;4.82;;;;;;;;;;4968887;28;20313;-73
2022/06/17 06:08:04;;;;;;;8.10;5.65;;;;;;;;;;4981926;28;20218;-72
2022/06/17 06:10:32;;;;;;;7.47;5.13;;;;;;;;;;4933891;28;20217;-71
2022/06/17 06:13:00;;;;;;;6.53;5.15;;;;;;;;;;4953448;28;20237;-71
2022/06/17 06:15:36;;;;;;;8.98;4.80;;;;;;;;;;4980282;28;20230;-72
2022/06/17 06:18:25;;;;;;;4.95;4.20;;;;;;;;;;4954146;28;20320;-72
2022/06/17 06:20:51;;;;;;;4.70;3.72;;;;;;;;;;4933807;28;20236;-72
2022/06/17 06:23:19;;;;;;;4.13;3.72;;;;;;;;;;4956536;28;20311;-72
2022/06/17 06:25:45;;;;;;;4.40;3.53;;;;;;;;;;4967722;28;20233;-73
2022/06/17 06:28:24;;;;;;;6.47;3.75;;;;;;;;;;4989429;28;20603;-72
2022/06/17 06:31:29;;;;;;;4.85;3.72;;;;;;;;;;4960095;28;20301;-71
2022/06/17 06:33:58;;;;;;;3.40;3.00;;;;;;;;;;4967467;28;20278;-71
2022/06/17 06:36:29;;;;;;;3.95;3.10;;;;;;;;;;4958990;28;20312;-71
2022/06/17 06:38:55;;;;;;;3.58;2.95;;;;;;;;;;4989517;28;20228;-71
2022/06/17 06:41:21;;;;;;;5.10;3.30;;;;;;;;;;4961024;28;20599;-73
2022/06/17 06:43:52;;;;;;;5.28;3.10;;;;;;;;;;4957080;28;20213;-72
2022/06/17 06:46:38;;;;;;;3.25;2.88;;;;;;;;;;4959239;28;20236;-71
2022/06/17 06:49:04;;;;;;;3.22;2.70;;;;;;;;;;4971078;28;20230;-72
2022/06/17 06:51:32;;;;;;;4.53;3.00;;;;;;;;;;4955627;28;20668;-72
2022/06/17 06:53:58;;;;;;;6.03;3.30;;;;;;;;;;4973575;28;20233;-72
2022/06/17 06:56:26;;;;;;;4.10;2.90;;;;;;;;;;4952411;28;20329;-71
2022/06/17 06:58:55;;;;;;;4.15;2.90;;;;;;;;;;4958478;28;20279;-72
2022/06/17 07:01:21;;;;;;;4.05;2.97;;;;;;;;;;4970772;28;20221;-72
2022/06/17 07:03:46;;;;;;;4.10;2.78;;;;;;;;;;4973554;28;20217;-72
2022/06/17 07:06:14;;;;;;;5.28;3.15;;;;;;;;;;4970202;28;20306;-72
2022/06/17 07:08:42;;;;;;;4.43;2.75;;;;;;;;;;4959768;28;20213;-72
2022/06/17 07:11:16;;;;;;;6.85;3.05;;;;;;;;;;4987524;28;20233;-73
2022/06/17 07:13:42;;;;;;;4.20;3.03;;;;;;;;;;4974783;28;20218;-74
2022/06/17 07:16:11;;;;;;;4.43;2.70;;;;;;;;;;4955153;28;20252;-72
2022/06/17 07:18:36;;;;;;;6.10;3.05;;;;;;;;;;4954609;28;20228;-73
2022/06/17 07:21:04;;;;;;;4.10;3.03;;;;;;;;;;4986509;28;20615;-73
2022/06/17 07:23:35;;;;;;;5.07;2.67;;;;;;;;;;4973045;28;20742;-72
2022/06/17 07:26:05;;;;;;;5.10;2.75;;;;;;;;;;4984723;28;20695;-72
2022/06/17 07:28:35;;;;;;;3.38;2.80;;;;;;;;;;4957604;28;20229;-73
2022/06/17 07:31:01;;;;;;;4.70;3.25;;;;;;;;;;4986252;28;20237;-72
2022/06/17 07:33:30;;;;;;;3.75;2.67;;;;;;;;;;4961830;28;20226;-73
2022/06/17 07:41:57;;;;;;;3.50;2.60;;;;;;;;;;4945952;28;20222;-74
2022/06/17 07:44:25;;;;;;;6.20;2.78;;;;;;;;;;4941583;28;20234;-73
2022/06/17 07:46:53;;;;;;;5.40;2.78;;;;;;;;;;4986582;28;20224;-72
2022/06/17 07:49:19;;;;;;;4.10;2.83;;;;;;;;;;4971732;28;20599;-72
2022/06/17 07:51:46;;;;;;;4.85;2.83;;;;;;;;;;4981396;28;20214;-73
2022/06/17 07:54:12;;;;;;;5.88;2.50;;;;;;;;;;4984364;28;20241;-72
2022/06/17 07:56:39;;;;;;;4.93;2.63;;;;;;;;;;4991817;28;20912;-72
2022/06/17 07:59:06;;;;;;;2.80;2.40;;;;;;;;;;4993910;28;20729;-70
2022/06/17 08:01:34;;;;;;;5.28;2.50;;;;;;;;;;4963569;28;20304;-73
2022/06/17 08:04:01;;;;;;;3.65;2.38;;;;;;;;;;4987632;28;20213;-70
2022/06/17 08:06:29;;;;;;;5.72;2.35;;;;;;;;;;4953864;28;20257;-69
2022/06/17 08:08:55;;;;;;;4.13;2.40;;;;;;;;;;4963316;28;20235;-71
2022/06/17 08:11:21;;;;;;;4.10;2.40;;;;;;;;;;4968246;28;20221;-71
2022/06/17 08:13:49;;;;;;;7.50;2.90;;;;;;;;;;4980834;28;20265;-69
2022/06/17 08:16:16;;;;;;;3.03;2.40;;;;;;;;;;4979970;28;20225;-72
2022/06/17 08:18:42;;;;;;;4.63;2.67;;;;;;;;;;4980215;28;20777;-71
2022/06/17 08:21:12;;;;;;;4.18;2.30;;;;;;;;;;4964724;28;21525;-69
2022/06/17 08:23:38;;;;;;;3.78;2.42;;;;;;;;;;4986017;28;20388;-73
2022/06/17 08:26:06;;;;;;;3.38;2.20;;;;;;;;;;4954914;28;20782;-72
2022/06/17 08:28:34;;;;;;;5.88;2.95;;;;;;;;;;4940062;28;20919;-69
2022/06/17 08:30:59;;;;;;;3.13;2.20;;;;;;;;;;4966369;28;20666;-73
2022/06/17 08:33:29;;;;;;;3.22;2.80;;;;;;;;;;4938048;28;20217;-71
2022/06/17 08:35:58;;;;;;;4.43;2.22;;;;;;;;;;4967219;28;20280;-70
2022/06/17 08:38:28;;;;;;;2.72;2.38;;;;;;;;;;4962800;28;20222;-71
2022/06/17 08:40:54;;;;;;;4.00;2.50;;;;;;;;;;4965701;28;20284;-71
2022/06/17 08:43:41;;;;;;;4.15;2.28;;;;;;;;;;4976918;28;20692;-70
2022/06/17 08:46:40;;;;;;;3.58;2.35;;;;;;;;;;4978479;28;20253;-71
2022/06/17 08:49:40;;;;;;;3.95;2.63;;;;;;;;;;4978556;28;20245;-71
2022/06/17 08:52:14;;;;;;;2.92;2.20;;;;;;;;;;4976688;28;20226;-71
2022/06/17 08:54:52;;;;;;;5.50;2.28;;;;;;;;;;4978464;28;20229;-72
2022/06/17 08:58:00;;;;;;;3.67;2.30;;;;;;;;;;4986111;28;20236;-71
2022/06/17 09:00:38;;;;;;;2.97;2.42;;;;;;;;;;4858974;29;20232;-71
2022/06/17 09:03:45;;;;;;;5.13;2.30;;;;;;;;;;4956370;28;20368;-72
2022/06/17 09:06:20;;;;;;;3.13;2.20;;;;;;;;;;4976673;28;20599;-72
2022/06/17 09:08:58;;;;;;;3.40;2.35;;;;;;;;;;4980566;28;20639;-71
2022/06/17 09:11:54;;;;;;;2.72;2.20;;;;;;;;;;4982101;28;20213;-71
2022/06/17 09:14:47;;;;;;;4.18;2.30;;;;;;;;;;4969190;28;20222;-72
2022/06/17 09:17:15;;;;;;;3.22;2.10;;;;;;;;;;4961186;28;20225;-72
2022/06/17 09:19:43;;;;;;;3.53;2.10;;;;;;;;;;4966209;28;20230;-72
2022/06/17 09:22:20;;;;;;;2.90;2.03;;;;;;;;;;4984961;28;20313;-72
2022/06/17 09:24:48;;;;;;;2.83;2.50;;;;;;;;;;4952914;28;20317;-70
2022/06/17 09:27:27;;;;;;;4.72;2.33;;;;;;;;;;4926431;28;20234;-71
2022/06/17 09:30:03;;;;;;;4.03;2.47;;;;;;;;;;4981094;28;20608;-72
2022/06/17 09:32:59;;;;;;;3.33;2.45;;;;;;;;;;4969442;28;20275;-73
2022/06/17 09:35:31;;;;;;;3.15;2.30;;;;;;;;;;4968626;28;20225;-72
2022/06/17 09:38:00;;;;;;;5.30;2.50;;;;;;;;;;4964437;28;20225;-73
2022/06/17 09:40:35;;;;;;;3.00;2.30;;;;;;;;;;4975530;28;20241;-72
2022/06/17 09:43:01;;;;;;;6.00;2.80;;;;;;;;;;4947745;28;20232;-71
2022/06/17 09:45:38;;;;;;;4.95;2.53;;;;;;;;;;4972412;28;20229;-71
2022/06/17 09:48:18;;;;;;;3.20;2.35;;;;;;;;;;4967760;28;20352;-72
2022/06/17 09:50:51;;;;;;;4.95;2.20;;;;;;;;;;4960854;28;20222;-71
2022/06/17 09:53:29;;;;;;;3.42;2.22;;;;;;;;;;4961303;28;20592;-71
2022/06/17 09:56:09;;;;;;;3.25;2.05;;;;;;;;;;4965002;28;20700;-72
2022/06/17 09:58:39;;;;;;;3.22;2.38;;;;;;;;;;4982885;28;20221;-72
2022/06/17 10:01:09;;;;;;;4.10;2.05;;;;;;;;;;4977884;28;20268;-72
2022/06/17 10:03:35;;;;;;;5.90;2.40;;;;;;;;;;4958405;28;20305;-72
2022/06/17 10:06:11;;;;;;;5.70;2.25;;;;;;;;;;4945436;28;20240;-72
2022/06/17 10:09:07;;;;;;;5.32;2.35;;;;;;;;;;4975298;28;20232;-71
2022/06/17 10:12:03;;;;;;;4.93;2.67;;;;;;;;;;4970687;28;20694;-72
2022/06/17 10:15:27;;;;;;;5.13;2.80;;;;;;;;;;4976678;28;20218;-72
2022/06/17 10:18:34;;;;;;;4.88;2.75;;;;;;;;;;4858996;29;20302;-71
2022/06/17 10:21:15;;;;;;;4.18;2.45;;;;;;;;;;4957779;28;20255;-72
2022/06/17 10:23:46;;;;;;;6.32;2.40;;;;;;;;;;4978421;28;20221;-71
2022/06/17 10:26:12;;;;;;;4.75;2.60;;;;;;;;;;4982528;28;20260;-72
2022/06/17 10:29:05;;;;;;;4.95;2.30;;;;;;;;;;4988821;28;20230;-73
2022/06/17 10:31:41;;;;;;;3.97;2.30;;;;;;;;;;4980917;28;20221;-71
2022/06/17 10:34:24;;;;;;;3.53;2.28;;;;;;;;;;4953576;28;20343;-70
2022/06/17 10:36:52;;;;;;;3.22;2.20;;;;;;;;;;4963685;28;20637;-73
2022/06/17 10:39:25;;;;;;;3.97;2.40;;;;;;;;;;4952850;28;20244;-75
2022/06/17 10:41:50;;;;;;;3.33;2.20;;;;;;;;;;4982196;28;20228;-76
2022/06/17 10:44:16;;;;;;;4.32;2.38;;;;;;;;;;4979553;28;20253;-73
2022/06/17 10:46:51;;;;;;;3.20;2.28;;;;;;;;;;4939948;28;20225;-73
2022/06/17 10:49:53;;;;;;;3.03;2.38;;;;;;;;;;4943129;28;20212;-72
2022/06/17 10:52:26;;;;;;;4.40;2.30;;;;;;;;;;4934834;28;20734;-72
2022/06/17 10:54:54;;;;;;;3.38;2.35;;;;;;;;;;4949689;28;20225;-72
2022/06/17 10:57:31;;;;;;;4.18;2.20;;;;;;;;;;4963261;28;20254;-73
2022/06/17 10:59:56;;;;;;;4.30;2.70;;;;;;;;;;4977044;28;20312;-72
2022/06/17 11:02:24;;;;;;;3.22;2.53;;;;;;;;;;4950532;28;20333;-71
2022/06/17 11:04:57;;;;;;;3.70;2.13;;;;;;;;;;4950012;28;20218;-71
2022/06/17 11:07:31;;;;;;;3.03;2.35;;;;;;;;;;4947926;28;20292;-71
2022/06/17 11:10:15;;;;;;;4.07;2.47;;;;;;;;;;4969839;28;20628;-72
2022/06/17 11:12:53;;;;;;;2.97;2.20;;;;;;;;;;4967919;28;20233;-72
2022/06/17 11:15:24;;;;;;;2.97;2.20;;;;;;;;;;4968545;28;20233;-72
2022/06/17 11:17:57;;;;;;;2.95;2.28;;;;;;;;;;4946400;28;20218;-71
2022/06/17 11:20:26;;;;;;;3.78;2.05;;;;;;;;;;4968309;28;20234;-72
2022/06/17 11:23:10;;;;;;;2.40;2.17;;;;;;;;;;4969977;28;20217;-71
2022/06/17 11:25:37;;;;;;;2.85;2.03;;;;;;;;;;4980087;28;20276;-71
2022/06/17 11:28:13;;;;;;;3.10;2.03;;;;;;;;;;4957482;28;20722;-71
2022/06/17 11:30:58;;;;;;;5.57;2.38;;;;;;;;;;4976860;28;20228;-71
2022/06/17 11:33:27;;;;;;;2.75;2.17;;;;;;;;;;4953389;28;20218;-72
2022/06/17 11:36:06;;;;;;;3.33;2.17;;;;;;;;;;4974295;28;20232;-72
2022/06/17 11:38:33;;;;;;;4.47;2.10;;;;;;;;;;4968564;28;20249;-73
2022/06/17 11:41:00;;;;;;;4.95;2.25;;;;;;;;;;4971419;28;20264;-73
2022/06/17 11:43:34;;;;;;;4.68;2.13;;;;;;;;;;4953985;28;20939;-76
2022/06/17 11:46:08;;;;;;;2.72;2.28;;;;;;;;;;4974652;28;20225;-74
2022/06/17 11:48:38;;;;;;;4.38;2.05;;;;;;;;;;4955801;28;20225;-73
2022/06/17 11:51:10;;;;;;;3.67;2.00;;;;;;;;;;4967790;28;20222;-74
2022/06/17 11:54:23;;;;;;;3.63;2.08;;;;;;;;;;4972949;28;20611;-73
2022/06/17 11:56:48;;;;;;;3.15;2.17;;;;;;;;;;4984790;28;20237;-72
2022/06/17 11:59:18;;;;;;;3.03;2.40;;;;;;;;;;4975160;28;20217;-72
2022/06/17 12:02:03;;;;;;;3.00;2.20;;;;;;;;;;4954269;28;20225;-73
2022/06/17 12:04:56;;;;;;;2.40;2.10;;;;;;;;;;4941782;28;20217;-74
2022/06/17 12:07:24;;;;;;;3.70;2.20;;;;;;;;;;4968427;28;20313;-74
2022/06/17 12:09:53;;;;;;;2.92;2.08;;;;;;;;;;4968877;28;20217;-73
2022/06/17 12:12:21;;;;;;;2.80;2.15;;;;;;;;;;4972954;28;20222;-73
2022/06/17 12:14:55;;;;;;;3.28;2.08;;;;;;;;;;4968523;28;20229;-72
2022/06/17 12:17:23;;;;;;;2.42;2.10;;;;;;;;;;5002227;28;20271;-72
2022/06/17 12:19:49;;;;;;;3.50;2.30;;;;;;;;;;4973291;28;20233;-73
2022/06/17 12:22:40;;;;;;;2.30;2.10;;;;;;;;;;4969174;28;20740;-74
2022/06/17 12:25:43;;;;;;;5.38;2.47;;;;;;;;;;4971231;28;21254;-72
2022/06/17 12:28:47;;;;;;;4.35;2.50;;;;;;;;;;4886403;29;20228;-73
2022/06/17 12:31:13;;;;;;;3.15;2.20;;;;;;;;;;4981826;28;20225;-73
2022/06/17 12:34:09;;;;;;;4.97;2.50;;;;;;;;;;4968974;28;20229;-73
2022/06/17 12:36:42;;;;;;;4.50;2.13;;;;;;;;;;4969702;28;20222;-73
2022/06/17 12:39:11;;;;;;;4.32;2.30;;;;;;;;;;4964031;28;20669;-74
2022/06/17 12:42:13;;;;;;;3.47;2.20;;;;;;;;;;4986762;28;20879;-73
2022/06/17 12:44:45;;;;;;;2.83;1.90;;;;;;;;;;4965720;28;20249;-74
2022/06/17 12:47:19;;;;;;;5.18;2.10;;;;;;;;;;4966582;28;20235;-73
2022/06/17 12:53:19;;;;;;;3.05;2.08;;;;;;;;;;4998148;28;20226;-73
2022/06/17 12:55:55;;;;;;;2.97;2.13;;;;;;;;;;4954657;28;20233;-74
2022/06/17 12:58:32;;;;;;;4.22;2.17;;;;;;;;;;4980398;28;20221;-75
2022/06/17 13:01:10;;;;;;;3.53;2.00;;;;;;;;;;4963944;28;20233;-73
2022/06/17 13:03:57;;;;;;;3.28;1.88;;;;;;;;;;4964109;28;20225;-76
2022/06/17 13:06:44;;;;;;;4.60;2.40;;;;;;;;;;4948664;28;20642;-73
2022/06/17 13:09:36;;;;;;;4.47;1.92;;;;;;;;;;4965238;28;20751;-72
2022/06/17 13:12:21;;;;;;;3.15;2.30;;;;;;;;;;4964425;28;20252;-73
2022/06/17 13:15:13;;;;;;;4.45;2.20;;;;;;;;;;4968969;28;20224;-73
2022/06/17 13:17:57;;;;;;;2.40;2.08;;;;;;;;;;4965669;28;20312;-73
2022/06/17 13:20:38;;;;;;;4.00;2.08;;;;;;;;;;4966433;28;20234;-74
2022/06/17 13:23:07;;;;;;;5.15;2.00;;;;;;;;;;4964501;28;20364;-75
2022/06/17 13:25:45;;;;;;;4.40;2.10;;;;;;;;;;4973127;28;20234;-74
2022/06/17 13:28:22;;;;;;;2.80;2.30;;;;;;;;;;4973207;28;20232;-73
2022/06/17 13:30:53;;;;;;;3.97;2.15;;;;;;;;;;4983530;28;20232;-74
2022/06/17 13:33:57;;;;;;;3.47;2.10;;;;;;;;;;4966713;28;20289;-74
2022/06/17 13:36:31;;;;;;;4.07;2.20;;;;;;;;;;4971838;28;20215;-74
2022/06/17 13:39:03;;;;;;;3.70;2.13;;;;;;;;;;4966575;28;20296;-73
2022/06/17 13:41:45;;;;;;;3.25;2.50;;;;;;;;;;4980745;28;20269;-73
2022/06/17 13:44:38;;;;;;;3.97;1.85;;;;;;;;;;4963058;28;20235;-74
2022/06/17 13:47:15;;;;;;;4.43;2.20;;;;;;;;;;4965848;28;20233;-73
2022/06/17 13:49:45;;;;;;;3.00;1.98;;;;;;;;;;4950970;28;20217;-75
2022/06/17 13:52:22;;;;;;;2.85;2.10;;;;;;;;;;4967529;28;20228;-69
2022/06/17 13:55:18;;;;;;;5.88;2.25;;;;;;;;;;4984320;28;20268;-72
2022/06/17 13:58:05;;;;;;;5.43;1.85;;;;;;;;;;4979542;28;20226;-72
2022/06/17 14:00:33;;;;;;;2.50;1.92;;;;;;;;;;4969142;28;20244;-72
2022/06/17 14:02:59;;;;;;;2.53;2.00;;;;;;;;;;4944957;28;20229;-72
2022/06/17 14:05:40;;;;;;;5.05;1.95;;;;;;;;;;4984344;28;20221;-72
2022/06/17 14:08:11;;;;;;;2.38;2.08;;;;;;;;;;4971670;28;20217;-72
2022/06/17 14:10:44;;;;;;;4.93;2.33;;;;;;;;;;4966637;28;20218;-72
2022/06/17 14:13:30;;;;;;;2.58;2.00;;;;;;;;;;4970743;28;20580;-72
2022/06/17 14:16:30;;;;;;;2.92;1.80;;;;;;;;;;4951476;28;20222;-71
2022/06/17 14:19:03;;;;;;;2.22;1.80;;;;;;;;;;4940160;28;20846;-72
2022/06/17 14:21:46;;;;;;;3.03;1.92;;;;;;;;;;4963364;28;20625;-72
2022/06/17 14:24:32;;;;;;;3.13;2.00;;;;;;;;;;4954006;28;20717;-73
2022/06/17 14:26:58;;;;;;;2.72;1.80;;;;;;;;;;4965053;28;20237;-73
2022/06/17 14:29:30;;;;;;;2.10;1.88;;;;;;;;;;4966909;28;20276;-72
2022/06/17 14:32:00;;;;;;;3.70;2.20;;;;;;;;;;4965580;28;20608;-73
2022/06/17 14:34:46;;;;;;;2.03;1.83;;;;;;;;;;4968661;28;20228;-72
2022/06/17 14:37:37;;;;;;;2.00;1.90;;;;;;;;;;4963761;28;20225;-73
2022/06/17 14:40:25;;;;;;;4.13;2.08;;;;;;;;;;4986669;28;20317;-74
2022/06/17 14:43:18;;;;;;;2.30;1.73;;;;;;;;;;4969031;28;20217;-71
2022/06/17 14:45:54;;;;;;;3.30;1.90;;;;;;;;;;4988880;28;20622;-73
2022/06/17 14:48:30;;;;;;;3.83;1.95;;;;;;;;;;4968382;28;20229;-72
2022/06/17 14:51:01;;;;;;;3.00;1.60;;;;;;;;;;4970362;28;20287;-72
2022/06/17 14:53:37;;;;;;;2.25;1.80;;;;;;;;;;4972348;28;20217;-71
2022/06/17 14:56:03;;;;;;;4.13;1.95;;;;;;;;;;4960129;28;20317;-72
2022/06/17 14:58:48;;;;;;;2.17;1.60;;;;;;;;;;4989436;28;20311;-73
2022/06/17 15:01:23;;;;;;;2.63;1.63;;;;;;;;;;4956807;28;20245;-72
2022/06/17 15:03:54;;;;;;;1.90;1.67;;;;;;;;;;4976588;28;20695;-71
2022/06/17 15:06:36;;;;;;;3.13;1.48;;;;;;;;;;4957365;28;20237;-75
2022/06/17 15:09:05;;;;;;;3.22;2.10;;;;;;;;;;4985165;28;20684;-73
2022/06/17 15:11:33;;;;;;;2.65;1.80;;;;;;;;;;4944050;28;20234;-72
2022/06/17 15:14:14;;;;;;;3.17;1.77;;;;;;;;;;4969301;28;20226;-71
2022/06/17 15:16:47;;;;;;;2.67;2.03;;;;;;;;;;4952114;28;20236;-72
2022/06/17 15:19:20;;;;;;;3.20;2.13;;;;;;;;;;4966511;28;20225;-72
2022/06/17 15:21:56;;;;;;;2.60;1.75;;;;;;;;;;4947902;28;20313;-72
2022/06/17 15:25:00;;;;;;;2.42;1.95;;;;;;;;;;4972031;28;20730;-73
2022/06/17 15:27:40;;;;;;;2.65;1.80;;;;;;;;;;4956735;28;20287;-72
2022/06/17 15:30:17;;;;;;;4.13;1.70;;;;;;;;;;4988809;28;20311;-72
2022/06/17 15:32:44;;;;;;;2.63;1.92;;;;;;;;;;4981701;28;20235;-73
2022/06/17 15:35:15;;;;;;;2.67;1.80;;;;;;;;;;4970742;28;20225;-71
2022/06/17 15:37:48;;;;;;;3.88;1.88;;;;;;;;;;4954546;28;20225;-71
2022/06/17 15:40:22;;;;;;;2.63;1.80;;;;;;;;;;4970742;28;20714;-73